createdAt,value
2018-07-23T00:02:05.488Z,4.60
2018-07-23T00:04:33.997Z,4.83
2018-07-23T00:07:02.532Z,5.07
2018-07-23T00:09:31.101Z,4.37
2018-07-23T00:11:59.693Z,4.77
2018-07-23T00:14:28.872Z,4.30
2018-07-23T00:16:57.509Z,4.37
2018-07-23T00:19:26.043Z,4.40
2018-07-23T00:21:54.612Z,4.27
2018-07-23T00:24:23.120Z,4.37
2018-07-23T00:26:51.600Z,5.07
2018-07-23T00:29:20.051Z,4.80
2018-07-23T00:31:48.545Z,4.30
2018-07-23T00:34:17.048Z,4.70
2018-07-23T00:36:45.565Z,4.90
2018-07-23T00:39:14.064Z,4.70
2018-07-23T00:41:42.537Z,4.67
2018-07-23T00:44:11.023Z,4.80
2018-07-23T00:46:39.581Z,5.23
2018-07-23T00:49:08.036Z,4.40
2018-07-23T00:51:36.605Z,4.87
2018-07-23T00:54:05.186Z,4.60
2018-07-23T00:56:33.733Z,4.27
2018-07-23T00:59:02.242Z,5.07
2018-07-23T01:01:30.807Z,4.63
2018-07-23T01:03:59.303Z,4.80
2018-07-23T01:06:27.757Z,4.50
2018-07-23T01:08:56.220Z,4.93
2018-07-23T01:11:24.716Z,4.40
2018-07-23T01:13:53.318Z,4.80
2018-07-23T01:16:21.932Z,4.90
2018-07-23T01:18:51.010Z,4.50
2018-07-23T01:21:19.496Z,5.10
2018-07-23T01:23:48.010Z,5.00
2018-07-23T01:26:16.569Z,4.57
2018-07-23T01:28:45.098Z,5.03
2018-07-23T01:31:13.576Z,5.27
2018-07-23T01:33:42.048Z,4.70
2018-07-23T01:36:10.523Z,5.10
2018-07-23T01:38:39.035Z,4.93
2018-07-23T01:41:07.639Z,5.17
2018-07-23T01:43:36.157Z,5.03
2018-07-23T01:46:04.673Z,4.90
2018-07-23T01:48:33.143Z,5.20
2018-07-23T01:51:01.646Z,5.13
2018-07-23T01:53:30.249Z,4.57
2018-07-23T01:55:58.758Z,5.37
2018-07-23T01:58:27.234Z,4.60
2018-07-23T02:00:55.764Z,5.30
2018-07-23T02:03:24.249Z,4.73
2018-07-23T02:05:52.755Z,5.40
2018-07-23T02:08:21.238Z,5.13
2018-07-23T02:10:49.748Z,5.80
2018-07-23T02:13:18.419Z,5.33
2018-07-23T02:15:47.057Z,5.50
2018-07-23T02:18:15.695Z,5.80
2018-07-23T02:20:44.248Z,5.83
2018-07-23T02:23:12.940Z,5.40
2018-07-23T02:25:41.512Z,5.73
2018-07-23T02:28:10.081Z,5.53
2018-07-23T02:30:38.702Z,5.90
2018-07-23T02:33:07.252Z,6.20
2018-07-23T02:35:36.117Z,5.63
2018-07-23T02:38:04.655Z,5.40
2018-07-23T02:40:33.243Z,5.93
2018-07-23T02:43:01.865Z,5.87
2018-07-23T02:45:30.487Z,5.73
2018-07-23T02:47:59.213Z,5.80
2018-07-23T02:50:27.888Z,5.53
2018-07-23T02:52:56.472Z,5.33
2018-07-23T02:55:25.061Z,5.50
2018-07-23T02:57:53.680Z,6.20
2018-07-23T03:00:22.327Z,6.73
2018-07-23T03:02:51.247Z,5.80
2018-07-23T03:05:19.978Z,6.03
2018-07-23T03:07:48.563Z,5.90
2018-07-23T03:10:17.129Z,6.20
2018-07-23T03:12:45.727Z,6.30
2018-07-23T03:15:14.316Z,5.63
2018-07-23T03:17:42.915Z,6.13
2018-07-23T03:20:11.468Z,6.20
2018-07-23T03:22:40.100Z,7.03
2018-07-23T03:25:08.761Z,6.37
2018-07-23T03:27:37.383Z,6.53
2018-07-23T03:30:05.947Z,7.20
2018-07-23T03:32:34.741Z,6.43
2018-07-23T03:35:03.251Z,6.70
2018-07-23T03:37:31.829Z,7.00
2018-07-23T03:40:00.401Z,6.73
2018-07-23T03:42:28.970Z,6.63
2018-07-23T03:44:57.537Z,6.87
2018-07-23T03:47:26.202Z,7.20
2018-07-23T03:49:54.879Z,7.50
2018-07-23T03:52:23.416Z,7.07
2018-07-23T03:54:52.050Z,7.00
2018-07-23T03:57:20.708Z,8.17
2018-07-23T03:59:49.653Z,7.40
2018-07-23T04:02:18.377Z,8.30
2018-07-23T04:04:47.285Z,7.77
2018-07-23T04:07:15.833Z,7.47
2018-07-23T04:09:44.360Z,7.13
2018-07-23T04:12:12.989Z,7.90
2018-07-23T04:14:41.599Z,7.60
2018-07-23T04:17:10.273Z,7.90
2018-07-23T04:19:38.811Z,8.27
2018-07-23T04:22:07.538Z,7.83
2018-07-23T04:24:36.145Z,8.50
2018-07-23T04:27:04.752Z,8.40
2018-07-23T04:29:33.275Z,9.57
2018-07-23T04:32:02.628Z,8.50
2018-07-23T04:34:31.200Z,8.10
2018-07-23T04:36:59.751Z,8.50
2018-07-23T04:39:28.362Z,8.00
2018-07-23T04:41:56.910Z,8.63
2018-07-23T04:44:25.520Z,8.97
2018-07-23T04:46:54.180Z,8.60
2018-07-23T04:49:22.800Z,9.37
2018-07-23T04:51:51.338Z,9.47
2018-07-23T04:54:19.926Z,9.23
2018-07-23T04:56:48.537Z,8.93
2018-07-23T04:59:16.985Z,8.97
2018-07-23T05:01:45.517Z,8.83
2018-07-23T05:04:14.051Z,9.37
2018-07-23T05:06:42.563Z,8.70
2018-07-23T05:09:12.492Z,9.57
2018-07-23T05:11:41.357Z,9.93
2018-07-23T05:14:10.404Z,10.03
2018-07-23T05:16:39.414Z,9.27
2018-07-23T05:19:08.301Z,9.70
2018-07-23T05:21:36.886Z,10.80
2018-07-23T05:24:05.548Z,10.10
2018-07-23T05:26:34.144Z,9.57
2018-07-23T05:29:02.794Z,9.73
2018-07-23T05:31:31.321Z,11.27
2018-07-23T05:33:59.849Z,10.60
2018-07-23T05:36:28.480Z,10.90
2018-07-23T05:38:57.084Z,11.53
2018-07-23T05:41:25.731Z,11.77
2018-07-23T05:43:54.438Z,10.90
2018-07-23T05:46:23.007Z,11.70
2018-07-23T05:48:51.774Z,11.87
2018-07-23T05:51:20.389Z,14.17
2018-07-23T05:53:48.979Z,11.83
2018-07-23T05:56:18.645Z,12.47
2018-07-23T05:58:47.422Z,10.17
2018-07-23T06:01:16.074Z,12.40
2018-07-23T06:03:53.948Z,12.47
2018-07-23T06:06:22.540Z,11.00
2018-07-23T06:08:51.325Z,11.80
2018-07-23T06:11:19.832Z,10.53
2018-07-23T06:13:48.348Z,11.97
2018-07-23T06:16:16.965Z,12.27
2018-07-23T06:18:45.540Z,11.83
2018-07-23T06:21:14.124Z,11.80
2018-07-23T06:23:42.762Z,11.63
2018-07-23T06:26:11.593Z,12.87
2018-07-23T06:28:40.207Z,13.23
2018-07-23T06:31:08.808Z,13.97
2018-07-23T06:33:37.473Z,13.93
2018-07-23T06:36:06.151Z,13.73
2018-07-23T06:38:34.794Z,15.27
2018-07-23T06:41:03.349Z,13.90
2018-07-23T06:43:32.134Z,14.70
2018-07-23T06:46:00.850Z,15.03
2018-07-23T06:48:29.522Z,14.77
2018-07-23T06:50:58.181Z,14.37
2018-07-23T06:53:26.793Z,14.40
2018-07-23T06:55:55.322Z,15.20
2018-07-23T06:58:23.798Z,13.20
2018-07-23T07:00:52.356Z,16.03
2018-07-23T07:03:21.021Z,11.47
2018-07-23T07:05:49.719Z,12.10
2018-07-23T07:08:18.473Z,12.60
2018-07-23T07:10:47.046Z,9.08
2018-07-23T07:13:16.138Z,6.72
2018-07-23T07:15:44.743Z,7.03
2018-07-23T07:18:13.305Z,7.47
2018-07-23T07:20:41.808Z,7.22
2018-07-23T07:23:10.306Z,7.90
2018-07-23T07:25:38.827Z,8.10
2018-07-23T07:28:07.318Z,7.35
2018-07-23T07:30:35.826Z,7.72
2018-07-23T07:33:04.313Z,8.95
2018-07-23T07:35:32.892Z,10.00
2018-07-23T07:38:01.547Z,8.93
2018-07-23T07:40:30.063Z,6.12
2018-07-23T07:42:59.667Z,7.22
2018-07-23T07:45:28.274Z,6.75
2018-07-23T07:47:56.885Z,7.55
2018-07-23T07:50:25.464Z,7.85
2018-07-23T07:52:53.993Z,7.03
2018-07-23T07:55:22.604Z,6.40
2018-07-23T07:57:51.278Z,6.85
2018-07-23T08:00:20.029Z,6.65
2018-07-23T08:02:48.745Z,10.25
2018-07-23T08:05:17.401Z,8.33
2018-07-23T08:07:46.316Z,7.58
2018-07-23T08:10:15.224Z,7.60
2018-07-23T08:12:44.124Z,7.20
2018-07-23T08:15:12.897Z,8.23
2018-07-23T08:17:41.753Z,7.50
2018-07-23T08:20:10.411Z,7.00
2018-07-23T08:22:39.221Z,8.18
2018-07-23T08:25:08.333Z,6.65
2018-07-23T08:27:37.137Z,8.30
2018-07-23T08:30:07.094Z,7.65
2018-07-23T08:32:36.272Z,6.67
2018-07-23T08:35:09.108Z,7.22
2018-07-23T08:37:38.123Z,7.20
2018-07-23T08:40:07.153Z,7.90
2018-07-23T08:42:36.200Z,8.83
2018-07-23T08:45:05.135Z,7.58
2018-07-23T08:47:33.846Z,6.42
2018-07-23T08:50:02.488Z,7.70
2018-07-23T08:52:31.196Z,7.25
2018-07-23T08:54:59.908Z,7.17
2018-07-23T08:57:29.260Z,7.58
2018-07-23T08:59:57.853Z,7.22
2018-07-23T09:02:26.574Z,7.90
2018-07-23T09:04:55.328Z,9.90
2018-07-23T09:07:24.346Z,6.70
2018-07-23T09:09:52.934Z,7.15
2018-07-23T09:12:21.716Z,8.10
2018-07-23T09:14:50.602Z,7.37
2018-07-23T09:17:19.323Z,7.85
2018-07-23T09:19:47.913Z,7.10
2018-07-23T09:22:16.657Z,7.22
2018-07-23T09:24:45.241Z,7.03
2018-07-23T09:27:14.240Z,7.00
2018-07-23T09:29:42.922Z,7.45
2018-07-23T09:32:11.569Z,6.72
2018-07-23T09:34:40.483Z,7.45
2018-07-23T09:37:09.080Z,8.03
2018-07-23T09:39:37.942Z,8.05
2018-07-23T09:42:06.639Z,8.25
2018-07-23T09:44:35.444Z,7.95
2018-07-23T09:47:04.185Z,8.33
2018-07-23T09:49:32.717Z,8.08
2018-07-23T09:52:01.266Z,8.23
2018-07-23T09:54:29.968Z,7.83
2018-07-23T09:56:58.557Z,8.68
2018-07-23T09:59:27.153Z,7.45
2018-07-23T10:01:55.683Z,7.97
2018-07-23T10:04:24.241Z,8.28
2018-07-23T10:06:54.776Z,8.93
2018-07-23T10:09:23.441Z,10.82
2018-07-23T10:11:52.128Z,10.78
2018-07-23T10:14:21.170Z,10.58
2018-07-23T10:16:49.742Z,9.08
2018-07-23T10:19:18.387Z,10.60
2018-07-23T10:21:46.918Z,9.58
2018-07-23T10:24:15.469Z,9.25
2018-07-23T10:26:44.046Z,8.38
2018-07-23T10:29:12.547Z,8.65
2018-07-23T10:31:41.189Z,9.63
2018-07-23T10:34:09.775Z,10.15
2018-07-23T10:36:38.505Z,9.95
2018-07-23T10:39:08.854Z,10.18
2018-07-23T10:41:37.485Z,9.78
2018-07-23T10:44:06.084Z,10.90
2018-07-23T10:46:34.763Z,10.85
2018-07-23T10:49:03.329Z,10.80
2018-07-23T10:51:31.924Z,10.45
2018-07-23T10:54:00.511Z,10.05
2018-07-23T10:56:29.195Z,10.00
2018-07-23T10:58:57.809Z,12.55
2018-07-23T11:01:26.528Z,12.85
2018-07-23T11:03:55.378Z,11.80
2018-07-23T11:06:24.077Z,11.57
2018-07-23T11:08:53.089Z,12.40
2018-07-23T11:11:21.690Z,15.23
2018-07-23T11:13:50.400Z,13.65
2018-07-23T11:16:19.087Z,12.85
2018-07-23T11:18:47.763Z,16.35
2018-07-23T11:21:16.619Z,13.98
2018-07-23T11:23:45.628Z,10.65
2018-07-23T11:26:14.238Z,16.93
2018-07-23T11:28:42.776Z,15.38
2018-07-23T11:31:11.433Z,12.00
2018-07-23T11:33:40.165Z,15.58
2018-07-23T11:36:08.780Z,15.75
2018-07-23T11:38:37.438Z,11.35
2018-07-23T11:41:05.985Z,10.98
2018-07-23T11:43:34.852Z,11.93
2018-07-23T11:46:03.522Z,10.55
2018-07-23T11:48:32.175Z,10.80
2018-07-23T11:51:00.988Z,9.65
2018-07-23T11:53:30.037Z,9.03
2018-07-23T11:55:58.736Z,8.33
2018-07-23T11:58:27.508Z,10.75
2018-07-23T12:00:56.257Z,10.05
2018-07-23T12:03:24.896Z,8.93
2018-07-23T12:05:53.486Z,10.38
2018-07-23T12:08:22.710Z,10.98
2018-07-23T12:10:51.369Z,11.25
2018-07-23T12:13:20.488Z,10.00
2018-07-23T12:15:49.081Z,10.85
2018-07-23T12:18:18.349Z,10.43
2018-07-23T12:20:47.181Z,13.00
2018-07-23T12:23:15.829Z,26.75
2018-07-23T12:25:44.392Z,9.10
2018-07-23T12:28:13.111Z,11.40
2018-07-23T12:30:41.716Z,7.42
2018-07-23T12:33:10.371Z,10.32
2018-07-23T12:35:39.048Z,8.08
2018-07-23T12:38:07.631Z,7.55
2018-07-23T12:40:36.320Z,7.10
2018-07-23T12:43:04.955Z,6.75
2018-07-23T12:45:33.715Z,7.08
2018-07-23T12:48:02.400Z,6.60
2018-07-23T12:50:31.296Z,6.33
2018-07-23T12:52:59.965Z,6.70
2018-07-23T12:55:28.520Z,10.18
2018-07-23T12:57:57.127Z,6.55
2018-07-23T13:00:25.863Z,7.78
2018-07-23T13:02:54.479Z,6.55
2018-07-23T13:05:26.424Z,7.28
2018-07-23T13:07:55.569Z,10.15
2018-07-23T13:10:24.465Z,7.50
2018-07-23T13:12:53.364Z,6.33
2018-07-23T13:15:21.891Z,5.92
2018-07-23T13:17:50.454Z,6.30
2018-07-23T13:20:19.084Z,5.80
2018-07-23T13:22:48.471Z,5.22
2018-07-23T13:25:17.427Z,5.47
2018-07-23T13:27:46.528Z,5.33
2018-07-23T13:30:15.415Z,6.30
2018-07-23T13:32:45.276Z,6.50
2018-07-23T13:35:13.995Z,6.05
2018-07-23T13:37:43.254Z,5.70
2018-07-23T13:40:11.902Z,5.97
2018-07-23T13:42:40.693Z,5.53
2018-07-23T13:45:09.300Z,5.60
2018-07-23T13:47:37.919Z,4.97
2018-07-23T13:50:06.705Z,4.45
2018-07-23T13:52:35.318Z,4.65
2018-07-23T13:55:04.300Z,5.75
2018-07-23T13:57:33.184Z,4.55
2018-07-23T14:00:01.857Z,4.80
2018-07-23T14:02:30.803Z,4.53
2018-07-23T14:04:59.413Z,3.80
2018-07-23T14:07:28.452Z,4.22
2018-07-23T14:09:57.199Z,3.58
2018-07-23T14:12:25.713Z,3.90
2018-07-23T14:14:54.641Z,3.62
2018-07-23T14:17:23.238Z,4.85
2018-07-23T14:19:51.856Z,4.58
2018-07-23T14:22:20.391Z,5.12
2018-07-23T14:24:48.933Z,4.42
2018-07-23T14:27:17.598Z,4.30
2018-07-23T14:29:46.447Z,3.90
2018-07-23T14:32:15.112Z,4.92
2018-07-23T14:34:43.881Z,4.50
2018-07-23T14:37:12.536Z,4.87
2018-07-23T14:39:42.084Z,5.83
2018-07-23T14:42:10.830Z,6.12
2018-07-23T14:44:39.529Z,4.87
2018-07-23T14:47:08.076Z,5.75
2018-07-23T14:49:36.783Z,5.58
2018-07-23T14:52:05.420Z,5.70
2018-07-23T14:54:34.249Z,5.12
2018-07-23T14:57:04.005Z,5.40
2018-07-23T14:59:32.611Z,5.67
2018-07-23T15:02:02.369Z,5.95
2018-07-23T15:04:30.990Z,6.20
2018-07-23T15:06:59.595Z,6.50
2018-07-23T15:09:28.206Z,6.58
2018-07-23T15:11:57.212Z,7.87
2018-07-23T15:14:25.808Z,6.65
2018-07-23T15:16:54.546Z,6.55
2018-07-23T15:19:23.116Z,6.78
2018-07-23T15:21:51.831Z,7.90
2018-07-23T15:24:20.422Z,7.70
2018-07-23T15:26:49.057Z,7.35
2018-07-23T15:29:17.674Z,7.33
2018-07-23T15:31:46.275Z,7.75
2018-07-23T15:34:14.869Z,7.28
2018-07-23T15:36:43.695Z,7.75
2018-07-23T15:39:12.403Z,8.65
2018-07-23T15:41:41.211Z,8.33
2018-07-23T15:44:09.929Z,9.18
2018-07-23T15:46:38.492Z,10.93
2018-07-23T15:49:07.151Z,7.83
2018-07-23T15:51:35.704Z,7.95
2018-07-23T15:54:04.568Z,8.50
2018-07-23T15:56:33.326Z,9.13
2018-07-23T15:59:01.977Z,8.18
2018-07-23T16:01:30.608Z,8.03
2018-07-23T16:03:59.570Z,8.78
2018-07-23T16:06:28.280Z,7.97
2018-07-23T16:08:57.057Z,9.53
2018-07-23T16:11:25.857Z,9.15
2018-07-23T16:13:54.942Z,9.03
2018-07-23T16:16:23.772Z,9.60
2018-07-23T16:18:52.395Z,9.20
2018-07-23T16:21:21.180Z,8.35
2018-07-23T16:23:49.837Z,8.38
2018-07-23T16:26:18.544Z,7.87
2018-07-23T16:28:47.301Z,15.85
2018-07-23T16:31:16.030Z,8.65
2018-07-23T16:33:44.634Z,8.45
2018-07-23T16:36:13.282Z,8.80
2018-07-23T16:38:42.042Z,8.90
2018-07-23T16:41:10.697Z,8.23
2018-07-23T16:43:39.384Z,10.58
2018-07-23T16:46:08.710Z,9.45
2018-07-23T16:48:37.402Z,10.20
2018-07-23T16:51:06.212Z,8.60
2018-07-23T16:53:34.950Z,12.33
2018-07-23T16:56:03.555Z,9.47
2018-07-23T16:58:32.345Z,8.10
2018-07-23T17:01:00.976Z,8.63
2018-07-23T17:03:29.642Z,8.23
2018-07-23T17:05:58.318Z,8.40
2018-07-23T17:08:26.960Z,8.83
2018-07-23T17:10:55.615Z,8.30
2018-07-23T17:13:24.240Z,8.10
2018-07-23T17:15:53.000Z,8.10
2018-07-23T17:18:21.730Z,9.00
2018-07-23T17:20:50.416Z,8.37
2018-07-23T17:23:19.073Z,7.70
2018-07-23T17:25:47.724Z,8.43
2018-07-23T17:28:16.376Z,8.50
2018-07-23T17:30:45.063Z,7.93
2018-07-23T17:33:13.859Z,8.53
2018-07-23T17:35:42.601Z,8.30
2018-07-23T17:38:11.492Z,8.07
2018-07-23T17:40:40.686Z,9.27
2018-07-23T17:43:09.416Z,8.47
2018-07-23T17:45:38.087Z,7.97
2018-07-23T17:48:06.891Z,8.07
2018-07-23T17:50:35.664Z,8.10
2018-07-23T17:53:04.352Z,8.43
2018-07-23T17:55:33.200Z,9.03
2018-07-23T17:58:01.829Z,8.53
2018-07-23T18:00:30.573Z,13.70
2018-07-23T18:02:59.529Z,8.27
2018-07-23T18:05:28.409Z,10.10
2018-07-23T18:07:57.189Z,8.57
2018-07-23T18:10:26.032Z,8.00
2018-07-23T18:12:54.749Z,7.87
2018-07-23T18:15:23.440Z,8.33
2018-07-23T18:17:52.078Z,8.07
2018-07-23T18:20:20.605Z,7.93
2018-07-23T18:22:49.141Z,8.23
2018-07-23T18:25:18.172Z,7.80
2018-07-23T18:27:46.727Z,8.13
2018-07-23T18:30:15.423Z,8.13
2018-07-23T18:32:44.085Z,7.73
2018-07-23T18:35:12.852Z,7.97
2018-07-23T18:37:41.488Z,8.53
2018-07-23T18:40:10.117Z,8.23
2018-07-23T18:42:39.155Z,7.70
2018-07-23T18:45:07.804Z,8.10
2018-07-23T18:47:36.722Z,8.03
2018-07-23T18:50:05.602Z,7.60
2018-07-23T18:52:34.378Z,8.33
2018-07-23T18:55:03.044Z,7.80
2018-07-23T18:57:31.701Z,8.10
2018-07-23T19:00:00.436Z,8.03
2018-07-23T19:02:33.746Z,8.13
2018-07-23T19:05:02.599Z,8.53
2018-07-23T19:07:31.535Z,8.40
2018-07-23T19:10:00.314Z,8.10
2018-07-23T19:12:28.908Z,8.63
2018-07-23T19:14:57.552Z,8.67
2018-07-23T19:17:26.215Z,8.07
2018-07-23T19:19:54.810Z,8.60
2018-07-23T19:22:23.490Z,8.37
2018-07-23T19:24:52.198Z,8.67
2018-07-23T19:27:21.610Z,8.17
2018-07-23T19:29:50.251Z,8.00
2018-07-23T19:32:19.069Z,8.50
2018-07-23T19:34:47.771Z,8.33
2018-07-23T19:37:16.465Z,8.50
2018-07-23T19:39:45.226Z,8.00
2018-07-23T19:42:14.044Z,8.33
2018-07-23T19:44:42.614Z,8.00
2018-07-23T19:47:11.247Z,7.70
2018-07-23T19:49:39.937Z,8.27
2018-07-23T19:52:08.688Z,7.00
2018-07-23T19:54:37.362Z,6.90
2018-07-23T19:57:06.086Z,7.73
2018-07-23T19:59:34.761Z,7.90
2018-07-23T20:02:03.549Z,8.23
2018-07-23T20:04:32.235Z,8.30
2018-07-23T20:07:00.944Z,8.63
2018-07-23T20:09:29.494Z,8.33
2018-07-23T20:11:58.399Z,8.30
2018-07-23T20:14:26.930Z,8.17
2018-07-23T20:16:55.557Z,8.60
2018-07-23T20:19:24.192Z,8.00
2018-07-23T20:21:53.039Z,7.70
2018-07-23T20:24:21.568Z,7.50
2018-07-23T20:26:50.258Z,7.50
2018-07-23T20:29:19.093Z,7.23
2018-07-23T20:31:48.242Z,7.67
2018-07-23T20:34:20.682Z,7.63
2018-07-23T20:36:52.544Z,7.33
2018-07-23T20:39:21.435Z,7.90
2018-07-23T20:41:50.024Z,7.97
2018-07-23T20:44:18.658Z,7.50
2018-07-23T20:46:47.476Z,7.63
2018-07-23T20:49:16.131Z,7.67
2018-07-23T20:51:44.775Z,7.83
2018-07-23T20:54:13.578Z,8.07
2018-07-23T20:56:42.590Z,8.07
2018-07-23T20:59:11.212Z,8.10
2018-07-23T21:01:40.159Z,7.93
2018-07-23T21:04:09.024Z,8.10
2018-07-23T21:06:37.785Z,7.37
2018-07-23T21:09:07.722Z,8.30
2018-07-23T21:11:36.752Z,8.70
2018-07-23T21:14:05.513Z,8.57
2018-07-23T21:16:34.231Z,8.60
2018-07-23T21:19:02.864Z,8.67
2018-07-23T21:21:31.425Z,7.70
2018-07-23T21:24:00.112Z,8.20
2018-07-23T21:26:28.733Z,8.60
2018-07-23T21:28:57.484Z,8.23
2018-07-23T21:31:26.291Z,8.33
2018-07-23T21:33:55.078Z,8.40
2018-07-23T21:36:23.743Z,8.67
2018-07-23T21:38:52.664Z,8.10
2018-07-23T21:41:21.437Z,8.50
2018-07-23T21:43:50.242Z,8.43
2018-07-23T21:46:19.085Z,8.77
2018-07-23T21:48:48.138Z,8.77
2018-07-23T21:51:16.934Z,9.53
2018-07-23T21:53:45.765Z,8.90
2018-07-23T21:56:14.533Z,8.97
2018-07-23T21:58:43.298Z,9.27
2018-07-23T22:01:12.048Z,9.00
2018-07-23T22:03:40.612Z,9.20
2018-07-23T22:06:09.286Z,9.43
2018-07-23T22:08:37.889Z,9.10
2018-07-23T22:11:06.512Z,10.10
2018-07-23T22:13:35.239Z,9.53
2018-07-23T22:16:03.760Z,9.83
2018-07-23T22:18:32.346Z,9.90
2018-07-23T22:21:00.820Z,10.00
2018-07-23T22:23:29.366Z,9.87
2018-07-23T22:25:57.868Z,9.93
2018-07-23T22:28:26.367Z,10.70
2018-07-23T22:30:54.792Z,9.07
2018-07-23T22:33:23.323Z,9.93
2018-07-23T22:35:51.918Z,9.87
2018-07-23T22:38:20.532Z,10.10
2018-07-23T22:40:49.164Z,10.10
2018-07-23T22:43:17.814Z,10.37
2018-07-23T22:45:46.415Z,9.37
2018-07-23T22:48:15.020Z,10.17
2018-07-23T22:50:43.596Z,9.63
2018-07-23T22:53:12.101Z,10.00
2018-07-23T22:55:40.685Z,10.13
2018-07-23T22:58:09.305Z,9.87
2018-07-23T23:00:37.963Z,10.10
2018-07-23T23:03:06.636Z,9.97
2018-07-23T23:05:35.132Z,10.53
2018-07-23T23:08:03.762Z,9.87
2018-07-23T23:10:32.276Z,9.77
2018-07-23T23:13:00.810Z,9.23
2018-07-23T23:15:29.485Z,10.43
2018-07-23T23:17:57.998Z,10.00
2018-07-23T23:20:26.557Z,10.60
2018-07-23T23:22:55.224Z,9.80
2018-07-23T23:25:23.820Z,9.77
2018-07-23T23:27:52.426Z,10.57
2018-07-23T23:30:21.012Z,9.57
2018-07-23T23:32:49.683Z,10.83
2018-07-23T23:35:18.353Z,10.83
2018-07-23T23:37:46.974Z,10.73
2018-07-23T23:40:15.739Z,10.80
2018-07-23T23:42:44.239Z,10.60
2018-07-23T23:45:12.929Z,10.93
2018-07-23T23:47:41.502Z,11.17
2018-07-23T23:50:10.200Z,10.40
2018-07-23T23:52:38.754Z,10.60
2018-07-23T23:55:07.292Z,11.03
2018-07-23T23:57:35.822Z,10.53
